sensor_id;sensor_type;location;lat;lon;timestamp;temperature;humidity
18163;DHT22;9206;50.994;4.538;2024-03-08T00:01:12;4.50;99.90
18163;DHT22;9206;50.994;4.538;2024-03-08T00:03:59;4.50;99.90
18163;DHT22;9206;50.994;4.538;2024-03-08T00:06:46;4.40;99.90
18163;DHT22;9206;50.994;4.538;2024-03-08T00:09:36;4.40;99.90
18163;DHT22;9206;50.994;4.538;2024-03-08T00:12:25;4.40;99.90
18163;DHT22;9206;50.994;4.538;2024-03-08T00:15:17;4.40;99.90
18163;DHT22;9206;50.994;4.538;2024-03-08T00:18:10;4.30;99.90
18163;DHT22;9206;50.994;4.538;2024-03-08T00:21:00;4.40;99.90
18163;DHT22;9206;50.994;4.538;2024-03-08T00:23:53;4.40;99.90
18163;DHT22;9206;50.994;4.538;2024-03-08T00:26:44;4.40;99.90
18163;DHT22;9206;50.994;4.538;2024-03-08T00:29:34;4.30;99.90
18163;DHT22;9206;50.994;4.538;2024-03-08T00:32:24;4.40;99.90
18163;DHT22;9206;50.994;4.538;2024-03-08T00:35:16;4.30;99.90
18163;DHT22;9206;50.994;4.538;2024-03-08T00:38:06;4.30;99.90
18163;DHT22;9206;50.994;4.538;2024-03-08T00:40:54;4.20;99.90
18163;DHT22;9206;50.994;4.538;2024-03-08T00:43:44;4.20;99.90
18163;DHT22;9206;50.994;4.538;2024-03-08T00:46:34;4.20;99.90
18163;DHT22;9206;50.994;4.538;2024-03-08T00:49:24;4.20;99.90
18163;DHT22;9206;50.994;4.538;2024-03-08T00:52:14;4.20;99.90
18163;DHT22;9206;50.994;4.538;2024-03-08T00:55:01;4.10;99.90
18163;DHT22;9206;50.994;4.538;2024-03-08T00:57:51;4.20;99.90
18163;DHT22;9206;50.994;4.538;2024-03-08T01:00:39;4.20;99.90
18163;DHT22;9206;50.994;4.538;2024-03-08T01:03:40;4.20;99.90
18163;DHT22;9206;50.994;4.538;2024-03-08T01:06:31;4.10;99.90
18163;DHT22;9206;50.994;4.538;2024-03-08T01:09:19;4.10;99.90
18163;DHT22;9206;50.994;4.538;2024-03-08T01:12:07;4.10;99.90
18163;DHT22;9206;50.994;4.538;2024-03-08T01:14:56;4.10;99.90
18163;DHT22;9206;50.994;4.538;2024-03-08T01:17:44;4.10;99.90
18163;DHT22;9206;50.994;4.538;2024-03-08T01:20:32;4.10;99.90
18163;DHT22;9206;50.994;4.538;2024-03-08T01:23:22;4.00;99.90
18163;DHT22;9206;50.994;4.538;2024-03-08T01:26:12;4.00;99.90
18163;DHT22;9206;50.994;4.538;2024-03-08T01:29:00;4.00;99.90
18163;DHT22;9206;50.994;4.538;2024-03-08T01:31:48;4.00;99.90
18163;DHT22;9206;50.994;4.538;2024-03-08T01:34:39;4.00;99.90
18163;DHT22;9206;50.994;4.538;2024-03-08T01:37:28;3.90;99.90
18163;DHT22;9206;50.994;4.538;2024-03-08T01:40:19;3.90;99.90
18163;DHT22;9206;50.994;4.538;2024-03-08T01:43:18;3.90;99.90
18163;DHT22;9206;50.994;4.538;2024-03-08T01:46:06;3.90;99.90
18163;DHT22;9206;50.994;4.538;2024-03-08T01:48:55;3.90;99.90
18163;DHT22;9206;50.994;4.538;2024-03-08T01:51:48;3.90;99.90
18163;DHT22;9206;50.994;4.538;2024-03-08T01:54:36;3.90;99.90
18163;DHT22;9206;50.994;4.538;2024-03-08T01:57:25;4.00;99.90
18163;DHT22;9206;50.994;4.538;2024-03-08T02:00:13;3.90;99.90
18163;DHT22;9206;50.994;4.538;2024-03-08T02:03:02;3.90;99.90
18163;DHT22;9206;50.994;4.538;2024-03-08T02:05:49;3.90;99.90
18163;DHT22;9206;50.994;4.538;2024-03-08T02:08:38;3.90;99.90
18163;DHT22;9206;50.994;4.538;2024-03-08T02:11:27;3.90;99.90
18163;DHT22;9206;50.994;4.538;2024-03-08T02:14:20;3.90;99.90
18163;DHT22;9206;50.994;4.538;2024-03-08T02:17:10;3.90;99.90
18163;DHT22;9206;50.994;4.538;2024-03-08T02:19:57;3.80;99.90
18163;DHT22;9206;50.994;4.538;2024-03-08T02:22:50;3.80;99.90
18163;DHT22;9206;50.994;4.538;2024-03-08T02:25:41;3.80;99.90
18163;DHT22;9206;50.994;4.538;2024-03-08T02:28:32;3.80;99.90
18163;DHT22;9206;50.994;4.538;2024-03-08T02:31:21;3.80;99.90
18163;DHT22;9206;50.994;4.538;2024-03-08T02:34:12;3.80;99.90
18163;DHT22;9206;50.994;4.538;2024-03-08T02:37:05;3.70;99.90
18163;DHT22;9206;50.994;4.538;2024-03-08T02:39:58;3.70;99.90
18163;DHT22;9206;50.994;4.538;2024-03-08T02:42:46;3.70;99.90
18163;DHT22;9206;50.994;4.538;2024-03-08T02:45:33;3.70;99.90
18163;DHT22;9206;50.994;4.538;2024-03-08T02:48:30;3.60;99.90
18163;DHT22;9206;50.994;4.538;2024-03-08T02:51:26;3.60;99.90
18163;DHT22;9206;50.994;4.538;2024-03-08T02:54:16;3.60;99.90
18163;DHT22;9206;50.994;4.538;2024-03-08T02:57:07;3.50;99.90
18163;DHT22;9206;50.994;4.538;2024-03-08T02:59:57;3.50;99.90
18163;DHT22;9206;50.994;4.538;2024-03-08T03:02:46;3.40;99.90
18163;DHT22;9206;50.994;4.538;2024-03-08T03:05:36;3.40;99.90
18163;DHT22;9206;50.994;4.538;2024-03-08T03:08:24;3.40;99.90
18163;DHT22;9206;50.994;4.538;2024-03-08T03:11:16;3.30;99.90
18163;DHT22;9206;50.994;4.538;2024-03-08T03:14:05;3.30;99.90
18163;DHT22;9206;50.994;4.538;2024-03-08T03:16:54;3.30;99.90
18163;DHT22;9206;50.994;4.538;2024-03-08T03:19:41;3.30;99.90
18163;DHT22;9206;50.994;4.538;2024-03-08T03:22:29;3.30;99.90
18163;DHT22;9206;50.994;4.538;2024-03-08T03:25:16;3.30;99.90
18163;DHT22;9206;50.994;4.538;2024-03-08T03:28:11;3.20;99.90
18163;DHT22;9206;50.994;4.538;2024-03-08T03:31:05;3.20;99.90
18163;DHT22;9206;50.994;4.538;2024-03-08T03:33:52;3.20;99.90
18163;DHT22;9206;50.994;4.538;2024-03-08T03:36:42;3.10;99.90
18163;DHT22;9206;50.994;4.538;2024-03-08T03:39:32;3.20;99.90
18163;DHT22;9206;50.994;4.538;2024-03-08T03:42:20;3.20;99.90
18163;DHT22;9206;50.994;4.538;2024-03-08T03:45:10;3.10;99.90
18163;DHT22;9206;50.994;4.538;2024-03-08T03:48:07;3.10;99.90
18163;DHT22;9206;50.994;4.538;2024-03-08T03:51:00;3.00;99.90
18163;DHT22;9206;50.994;4.538;2024-03-08T03:53:50;3.10;99.90
18163;DHT22;9206;50.994;4.538;2024-03-08T03:56:38;3.10;99.90
18163;DHT22;9206;50.994;4.538;2024-03-08T03:59:29;3.00;99.90
18163;DHT22;9206;50.994;4.538;2024-03-08T04:02:20;3.00;99.90
18163;DHT22;9206;50.994;4.538;2024-03-08T04:05:10;3.00;99.90
18163;DHT22;9206;50.994;4.538;2024-03-08T04:07:58;3.00;99.90
18163;DHT22;9206;50.994;4.538;2024-03-08T04:10:47;3.00;99.90
18163;DHT22;9206;50.994;4.538;2024-03-08T04:13:38;3.00;99.90
18163;DHT22;9206;50.994;4.538;2024-03-08T04:16:26;3.00;99.90
18163;DHT22;9206;50.994;4.538;2024-03-08T04:19:15;2.90;99.90
18163;DHT22;9206;50.994;4.538;2024-03-08T04:22:05;2.90;99.90
18163;DHT22;9206;50.994;4.538;2024-03-08T04:24:56;2.90;99.90
18163;DHT22;9206;50.994;4.538;2024-03-08T04:27:46;2.90;99.90
18163;DHT22;9206;50.994;4.538;2024-03-08T04:30:38;2.80;99.90
18163;DHT22;9206;50.994;4.538;2024-03-08T04:33:26;2.80;99.90
18163;DHT22;9206;50.994;4.538;2024-03-08T04:36:15;2.80;99.90
18163;DHT22;9206;50.994;4.538;2024-03-08T04:39:04;2.80;99.90
18163;DHT22;9206;50.994;4.538;2024-03-08T04:41:55;2.70;99.90
18163;DHT22;9206;50.994;4.538;2024-03-08T04:44:42;2.80;99.90
18163;DHT22;9206;50.994;4.538;2024-03-08T04:47:29;2.70;99.90
18163;DHT22;9206;50.994;4.538;2024-03-08T04:50:18;2.70;99.90
18163;DHT22;9206;50.994;4.538;2024-03-08T04:53:06;2.70;99.90
18163;DHT22;9206;50.994;4.538;2024-03-08T04:55:56;2.70;99.90
18163;DHT22;9206;50.994;4.538;2024-03-08T04:58:47;2.70;99.90
18163;DHT22;9206;50.994;4.538;2024-03-08T05:01:38;2.70;99.90
18163;DHT22;9206;50.994;4.538;2024-03-08T05:04:28;2.60;99.90
18163;DHT22;9206;50.994;4.538;2024-03-08T05:07:16;2.60;99.90
18163;DHT22;9206;50.994;4.538;2024-03-08T05:10:11;2.60;99.90
18163;DHT22;9206;50.994;4.538;2024-03-08T05:13:04;2.60;99.90
18163;DHT22;9206;50.994;4.538;2024-03-08T05:15:51;2.60;99.90
18163;DHT22;9206;50.994;4.538;2024-03-08T05:18:41;2.60;99.90
18163;DHT22;9206;50.994;4.538;2024-03-08T05:21:29;2.50;99.90
18163;DHT22;9206;50.994;4.538;2024-03-08T05:24:19;2.50;99.90
18163;DHT22;9206;50.994;4.538;2024-03-08T05:27:07;2.50;99.90
18163;DHT22;9206;50.994;4.538;2024-03-08T05:29:58;2.50;99.90
18163;DHT22;9206;50.994;4.538;2024-03-08T05:32:46;2.50;99.90
18163;DHT22;9206;50.994;4.538;2024-03-08T05:35:33;2.50;99.90
18163;DHT22;9206;50.994;4.538;2024-03-08T05:38:21;2.30;99.90
18163;DHT22;9206;50.994;4.538;2024-03-08T05:41:08;2.40;99.90
18163;DHT22;9206;50.994;4.538;2024-03-08T05:43:58;2.30;99.90
18163;DHT22;9206;50.994;4.538;2024-03-08T05:46:47;2.30;99.90
18163;DHT22;9206;50.994;4.538;2024-03-08T05:49:37;2.30;99.90
18163;DHT22;9206;50.994;4.538;2024-03-08T05:52:31;2.30;99.90
18163;DHT22;9206;50.994;4.538;2024-03-08T05:55:18;2.30;99.90
18163;DHT22;9206;50.994;4.538;2024-03-08T05:58:08;2.20;99.90
18163;DHT22;9206;50.994;4.538;2024-03-08T06:00:59;2.20;99.90
18163;DHT22;9206;50.994;4.538;2024-03-08T06:03:48;2.20;99.90
18163;DHT22;9206;50.994;4.538;2024-03-08T06:06:35;2.20;99.90
18163;DHT22;9206;50.994;4.538;2024-03-08T06:09:26;2.10;99.90
18163;DHT22;9206;50.994;4.538;2024-03-08T06:12:16;2.10;99.90
18163;DHT22;9206;50.994;4.538;2024-03-08T06:15:06;2.10;99.90
18163;DHT22;9206;50.994;4.538;2024-03-08T06:17:56;2.20;99.90
18163;DHT22;9206;50.994;4.538;2024-03-08T06:20:45;2.20;99.90
18163;DHT22;9206;50.994;4.538;2024-03-08T06:23:38;2.20;99.90
18163;DHT22;9206;50.994;4.538;2024-03-08T06:26:25;2.20;99.90
18163;DHT22;9206;50.994;4.538;2024-03-08T06:29:16;2.20;99.90
18163;DHT22;9206;50.994;4.538;2024-03-08T06:32:05;2.20;99.90
18163;DHT22;9206;50.994;4.538;2024-03-08T06:34:56;2.20;99.90
18163;DHT22;9206;50.994;4.538;2024-03-08T06:37:46;2.20;99.90
18163;DHT22;9206;50.994;4.538;2024-03-08T06:40:33;2.20;99.90
18163;DHT22;9206;50.994;4.538;2024-03-08T06:43:24;2.30;99.90
18163;DHT22;9206;50.994;4.538;2024-03-08T06:46:19;2.30;99.90
18163;DHT22;9206;50.994;4.538;2024-03-08T06:49:06;2.30;99.90
18163;DHT22;9206;50.994;4.538;2024-03-08T06:51:58;2.40;99.90
18163;DHT22;9206;50.994;4.538;2024-03-08T06:54:49;2.50;99.90
18163;DHT22;9206;50.994;4.538;2024-03-08T06:57:40;2.50;99.90
18163;DHT22;9206;50.994;4.538;2024-03-08T07:00:28;2.60;99.90
18163;DHT22;9206;50.994;4.538;2024-03-08T07:03:25;2.60;99.90
18163;DHT22;9206;50.994;4.538;2024-03-08T07:06:14;2.70;99.90
18163;DHT22;9206;50.994;4.538;2024-03-08T07:09:10;2.70;99.90
18163;DHT22;9206;50.994;4.538;2024-03-08T07:12:05;2.80;99.90
18163;DHT22;9206;50.994;4.538;2024-03-08T07:14:53;2.80;99.90
18163;DHT22;9206;50.994;4.538;2024-03-08T07:17:42;2.90;99.90
18163;DHT22;9206;50.994;4.538;2024-03-08T07:20:36;3.00;99.90
18163;DHT22;9206;50.994;4.538;2024-03-08T07:23:24;3.10;99.90
18163;DHT22;9206;50.994;4.538;2024-03-08T07:26:32;3.20;99.90
18163;DHT22;9206;50.994;4.538;2024-03-08T07:29:20;3.20;99.90
18163;DHT22;9206;50.994;4.538;2024-03-08T07:32:11;3.30;99.90
18163;DHT22;9206;50.994;4.538;2024-03-08T07:35:09;3.30;99.90
18163;DHT22;9206;50.994;4.538;2024-03-08T07:37:57;3.40;99.90
18163;DHT22;9206;50.994;4.538;2024-03-08T07:40:48;3.40;99.90
18163;DHT22;9206;50.994;4.538;2024-03-08T07:43:36;3.60;99.90
18163;DHT22;9206;50.994;4.538;2024-03-08T07:46:26;3.70;99.90
18163;DHT22;9206;50.994;4.538;2024-03-08T07:49:15;3.80;99.90
18163;DHT22;9206;50.994;4.538;2024-03-08T07:52:05;3.90;99.90
18163;DHT22;9206;50.994;4.538;2024-03-08T07:54:53;4.00;99.90
18163;DHT22;9206;50.994;4.538;2024-03-08T07:57:45;4.10;99.90
18163;DHT22;9206;50.994;4.538;2024-03-08T08:00:37;4.20;99.90
18163;DHT22;9206;50.994;4.538;2024-03-08T08:03:27;4.20;99.90
18163;DHT22;9206;50.994;4.538;2024-03-08T08:06:15;4.30;99.90
18163;DHT22;9206;50.994;4.538;2024-03-08T08:09:03;4.30;99.90
18163;DHT22;9206;50.994;4.538;2024-03-08T08:11:51;4.40;99.90
18163;DHT22;9206;50.994;4.538;2024-03-08T08:14:42;4.50;99.90
18163;DHT22;9206;50.994;4.538;2024-03-08T08:17:32;4.50;99.90
18163;DHT22;9206;50.994;4.538;2024-03-08T08:20:25;4.70;99.90
18163;DHT22;9206;50.994;4.538;2024-03-08T08:23:13;4.90;99.90
18163;DHT22;9206;50.994;4.538;2024-03-08T08:26:01;5.00;99.90
18163;DHT22;9206;50.994;4.538;2024-03-08T08:28:48;5.10;99.90
18163;DHT22;9206;50.994;4.538;2024-03-08T08:31:36;5.20;99.90
18163;DHT22;9206;50.994;4.538;2024-03-08T08:34:24;5.80;99.90
18163;DHT22;9206;50.994;4.538;2024-03-08T08:37:14;6.90;99.90
18163;DHT22;9206;50.994;4.538;2024-03-08T08:40:02;8.00;99.90
18163;DHT22;9206;50.994;4.538;2024-03-08T08:42:54;9.10;99.90
18163;DHT22;9206;50.994;4.538;2024-03-08T08:45:44;10.10;99.90
18163;DHT22;9206;50.994;4.538;2024-03-08T08:48:33;10.40;99.90
18163;DHT22;9206;50.994;4.538;2024-03-08T08:51:22;11.40;99.90
18163;DHT22;9206;50.994;4.538;2024-03-08T08:54:17;11.50;99.90
18163;DHT22;9206;50.994;4.538;2024-03-08T08:57:04;11.80;99.90
18163;DHT22;9206;50.994;4.538;2024-03-08T08:59:56;11.20;99.90
18163;DHT22;9206;50.994;4.538;2024-03-08T09:02:43;11.40;99.90
18163;DHT22;9206;50.994;4.538;2024-03-08T09:05:31;11.50;99.90
18163;DHT22;9206;50.994;4.538;2024-03-08T09:08:22;11.70;99.90
18163;DHT22;9206;50.994;4.538;2024-03-08T09:11:12;12.30;99.90
18163;DHT22;9206;50.994;4.538;2024-03-08T09:13:59;11.70;99.90
18163;DHT22;9206;50.994;4.538;2024-03-08T09:16:50;11.80;99.90
18163;DHT22;9206;50.994;4.538;2024-03-08T09:19:41;11.70;99.90
18163;DHT22;9206;50.994;4.538;2024-03-08T09:22:29;11.90;99.90
18163;DHT22;9206;50.994;4.538;2024-03-08T09:25:17;12.50;99.90
18163;DHT22;9206;50.994;4.538;2024-03-08T09:28:17;12.50;99.90
18163;DHT22;9206;50.994;4.538;2024-03-08T09:31:11;12.10;99.90
18163;DHT22;9206;50.994;4.538;2024-03-08T09:34:01;12.40;99.90
18163;DHT22;9206;50.994;4.538;2024-03-08T09:36:50;13.10;99.90
18163;DHT22;9206;50.994;4.538;2024-03-08T09:39:40;13.60;99.90
18163;DHT22;9206;50.994;4.538;2024-03-08T09:42:28;13.20;99.90
18163;DHT22;9206;50.994;4.538;2024-03-08T09:45:17;13.30;99.90
18163;DHT22;9206;50.994;4.538;2024-03-08T09:48:06;13.50;99.90
18163;DHT22;9206;50.994;4.538;2024-03-08T09:50:58;14.60;99.90
18163;DHT22;9206;50.994;4.538;2024-03-08T09:53:48;14.60;99.90
18163;DHT22;9206;50.994;4.538;2024-03-08T09:56:36;15.00;99.90
18163;DHT22;9206;50.994;4.538;2024-03-08T09:59:25;15.40;99.90
18163;DHT22;9206;50.994;4.538;2024-03-08T10:02:36;15.10;99.90
18163;DHT22;9206;50.994;4.538;2024-03-08T10:05:25;14.60;99.90
18163;DHT22;9206;50.994;4.538;2024-03-08T10:08:18;14.70;99.90
18163;DHT22;9206;50.994;4.538;2024-03-08T10:11:08;14.40;99.90
18163;DHT22;9206;50.994;4.538;2024-03-08T10:14:00;14.10;99.90
18163;DHT22;9206;50.994;4.538;2024-03-08T10:16:49;13.90;99.90
18163;DHT22;9206;50.994;4.538;2024-03-08T10:19:38;14.10;99.90
18163;DHT22;9206;50.994;4.538;2024-03-08T10:22:52;14.70;99.90
18163;DHT22;9206;50.994;4.538;2024-03-08T10:25:42;14.70;99.90
18163;DHT22;9206;50.994;4.538;2024-03-08T10:28:32;15.20;99.90
18163;DHT22;9206;50.994;4.538;2024-03-08T10:31:19;14.80;99.90
18163;DHT22;9206;50.994;4.538;2024-03-08T10:34:10;14.90;99.90
18163;DHT22;9206;50.994;4.538;2024-03-08T10:37:03;14.70;99.90
18163;DHT22;9206;50.994;4.538;2024-03-08T10:40:02;14.50;99.90
18163;DHT22;9206;50.994;4.538;2024-03-08T10:42:59;15.00;99.90
18163;DHT22;9206;50.994;4.538;2024-03-08T10:45:47;15.20;99.90
18163;DHT22;9206;50.994;4.538;2024-03-08T10:48:41;14.90;99.90
18163;DHT22;9206;50.994;4.538;2024-03-08T10:51:31;15.40;99.90
18163;DHT22;9206;50.994;4.538;2024-03-08T10:54:26;15.60;99.90
18163;DHT22;9206;50.994;4.538;2024-03-08T10:57:18;16.40;99.90
18163;DHT22;9206;50.994;4.538;2024-03-08T11:00:13;16.20;99.90
18163;DHT22;9206;50.994;4.538;2024-03-08T11:03:02;16.00;99.90
18163;DHT22;9206;50.994;4.538;2024-03-08T11:05:49;16.20;99.90
18163;DHT22;9206;50.994;4.538;2024-03-08T11:08:37;16.70;99.90
18163;DHT22;9206;50.994;4.538;2024-03-08T11:11:28;16.60;99.90
18163;DHT22;9206;50.994;4.538;2024-03-08T11:14:44;16.60;99.90
18163;DHT22;9206;50.994;4.538;2024-03-08T11:17:48;16.80;99.90
18163;DHT22;9206;50.994;4.538;2024-03-08T11:20:35;17.50;99.90
18163;DHT22;9206;50.994;4.538;2024-03-08T11:23:23;17.30;99.90
18163;DHT22;9206;50.994;4.538;2024-03-08T11:26:19;16.70;99.90
18163;DHT22;9206;50.994;4.538;2024-03-08T11:29:36;16.50;99.90
18163;DHT22;9206;50.994;4.538;2024-03-08T11:32:29;16.20;99.90
18163;DHT22;9206;50.994;4.538;2024-03-08T11:35:19;15.30;99.90
18163;DHT22;9206;50.994;4.538;2024-03-08T11:38:10;15.10;99.90
18163;DHT22;9206;50.994;4.538;2024-03-08T11:41:00;15.50;99.90
18163;DHT22;9206;50.994;4.538;2024-03-08T11:44:05;16.30;99.90
18163;DHT22;9206;50.994;4.538;2024-03-08T11:46:57;17.00;99.90
18163;DHT22;9206;50.994;4.538;2024-03-08T11:49:44;17.50;99.90
18163;DHT22;9206;50.994;4.538;2024-03-08T11:52:36;18.20;99.90
18163;DHT22;9206;50.994;4.538;2024-03-08T11:55:25;18.60;99.90
18163;DHT22;9206;50.994;4.538;2024-03-08T11:58:14;17.90;99.90
18163;DHT22;9206;50.994;4.538;2024-03-08T12:01:04;17.80;99.90
18163;DHT22;9206;50.994;4.538;2024-03-08T12:03:55;17.10;99.90
18163;DHT22;9206;50.994;4.538;2024-03-08T12:06:45;17.10;99.90
18163;DHT22;9206;50.994;4.538;2024-03-08T12:09:40;17.10;99.90
18163;DHT22;9206;50.994;4.538;2024-03-08T12:12:32;17.50;99.90
18163;DHT22;9206;50.994;4.538;2024-03-08T12:15:22;16.90;99.90
18163;DHT22;9206;50.994;4.538;2024-03-08T12:18:10;17.00;99.90
18163;DHT22;9206;50.994;4.538;2024-03-08T12:21:08;16.60;99.90
18163;DHT22;9206;50.994;4.538;2024-03-08T12:24:07;17.10;99.90
18163;DHT22;9206;50.994;4.538;2024-03-08T12:26:56;17.50;99.90
18163;DHT22;9206;50.994;4.538;2024-03-08T12:29:46;17.00;99.90
18163;DHT22;9206;50.994;4.538;2024-03-08T12:32:34;16.50;99.90
18163;DHT22;9206;50.994;4.538;2024-03-08T12:35:23;16.50;99.90
18163;DHT22;9206;50.994;4.538;2024-03-08T12:38:12;16.60;99.90
18163;DHT22;9206;50.994;4.538;2024-03-08T12:41:00;16.40;99.90
18163;DHT22;9206;50.994;4.538;2024-03-08T12:43:49;16.30;99.90
18163;DHT22;9206;50.994;4.538;2024-03-08T12:46:44;16.70;99.90
18163;DHT22;9206;50.994;4.538;2024-03-08T12:49:31;16.80;99.90
18163;DHT22;9206;50.994;4.538;2024-03-08T12:52:19;16.60;99.90
18163;DHT22;9206;50.994;4.538;2024-03-08T12:55:09;16.40;99.90
18163;DHT22;9206;50.994;4.538;2024-03-08T12:57:59;15.90;99.90
18163;DHT22;9206;50.994;4.538;2024-03-08T13:00:50;16.00;99.90
18163;DHT22;9206;50.994;4.538;2024-03-08T13:03:37;15.80;99.90
18163;DHT22;9206;50.994;4.538;2024-03-08T13:06:28;15.90;99.90
18163;DHT22;9206;50.994;4.538;2024-03-08T13:09:19;15.40;99.90
18163;DHT22;9206;50.994;4.538;2024-03-08T13:12:11;15.20;99.90
18163;DHT22;9206;50.994;4.538;2024-03-08T13:15:05;14.90;99.90
18163;DHT22;9206;50.994;4.538;2024-03-08T13:17:57;15.20;99.90
18163;DHT22;9206;50.994;4.538;2024-03-08T13:20:46;15.30;99.90
18163;DHT22;9206;50.994;4.538;2024-03-08T13:23:38;15.20;99.90
18163;DHT22;9206;50.994;4.538;2024-03-08T13:26:29;15.00;99.90
18163;DHT22;9206;50.994;4.538;2024-03-08T13:29:22;15.00;99.90
18163;DHT22;9206;50.994;4.538;2024-03-08T13:32:11;15.00;99.90
18163;DHT22;9206;50.994;4.538;2024-03-08T13:35:05;15.10;99.90
18163;DHT22;9206;50.994;4.538;2024-03-08T13:37:59;15.00;99.90
18163;DHT22;9206;50.994;4.538;2024-03-08T13:40:48;14.90;99.90
18163;DHT22;9206;50.994;4.538;2024-03-08T13:43:37;14.90;99.90
18163;DHT22;9206;50.994;4.538;2024-03-08T13:46:28;14.60;99.90
18163;DHT22;9206;50.994;4.538;2024-03-08T13:49:15;14.30;99.90
18163;DHT22;9206;50.994;4.538;2024-03-08T13:52:02;14.40;99.90
18163;DHT22;9206;50.994;4.538;2024-03-08T13:54:52;14.30;99.90
18163;DHT22;9206;50.994;4.538;2024-03-08T13:57:47;14.50;99.90
18163;DHT22;9206;50.994;4.538;2024-03-08T14:00:37;14.70;99.90
18163;DHT22;9206;50.994;4.538;2024-03-08T14:03:30;14.60;99.90
18163;DHT22;9206;50.994;4.538;2024-03-08T14:06:20;14.80;99.90
18163;DHT22;9206;50.994;4.538;2024-03-08T14:09:13;14.60;99.90
18163;DHT22;9206;50.994;4.538;2024-03-08T14:12:06;14.70;99.90
18163;DHT22;9206;50.994;4.538;2024-03-08T14:14:54;14.60;99.90
18163;DHT22;9206;50.994;4.538;2024-03-08T14:17:41;14.40;99.90
18163;DHT22;9206;50.994;4.538;2024-03-08T14:20:31;14.40;99.90
18163;DHT22;9206;50.994;4.538;2024-03-08T14:23:18;14.20;99.90
18163;DHT22;9206;50.994;4.538;2024-03-08T14:26:05;14.30;99.90
18163;DHT22;9206;50.994;4.538;2024-03-08T14:28:55;14.40;99.90
18163;DHT22;9206;50.994;4.538;2024-03-08T14:31:46;14.40;99.90
18163;DHT22;9206;50.994;4.538;2024-03-08T14:34:36;14.40;99.90
18163;DHT22;9206;50.994;4.538;2024-03-08T14:37:27;14.30;99.90
18163;DHT22;9206;50.994;4.538;2024-03-08T14:40:15;14.20;99.90
18163;DHT22;9206;50.994;4.538;2024-03-08T14:43:03;14.40;99.90
18163;DHT22;9206;50.994;4.538;2024-03-08T14:45:56;14.40;99.90
18163;DHT22;9206;50.994;4.538;2024-03-08T14:48:44;14.20;99.90
18163;DHT22;9206;50.994;4.538;2024-03-08T14:51:31;14.20;99.90
18163;DHT22;9206;50.994;4.538;2024-03-08T14:54:20;14.40;99.90
18163;DHT22;9206;50.994;4.538;2024-03-08T14:57:08;14.50;99.90
18163;DHT22;9206;50.994;4.538;2024-03-08T14:59:57;14.50;99.90
18163;DHT22;9206;50.994;4.538;2024-03-08T15:02:48;14.20;99.90
18163;DHT22;9206;50.994;4.538;2024-03-08T15:05:39;14.20;99.90
18163;DHT22;9206;50.994;4.538;2024-03-08T15:08:34;14.30;99.90
18163;DHT22;9206;50.994;4.538;2024-03-08T15:11:23;14.30;99.90
18163;DHT22;9206;50.994;4.538;2024-03-08T15:14:10;14.40;99.90
18163;DHT22;9206;50.994;4.538;2024-03-08T15:17:00;14.30;99.90
18163;DHT22;9206;50.994;4.538;2024-03-08T15:19:55;14.60;99.90
18163;DHT22;9206;50.994;4.538;2024-03-08T15:22:47;14.80;99.90
18163;DHT22;9206;50.994;4.538;2024-03-08T15:25:35;15.00;99.90
18163;DHT22;9206;50.994;4.538;2024-03-08T15:28:26;15.00;99.90
18163;DHT22;9206;50.994;4.538;2024-03-08T15:31:21;14.60;99.90
18163;DHT22;9206;50.994;4.538;2024-03-08T15:34:13;14.40;99.90
18163;DHT22;9206;50.994;4.538;2024-03-08T15:37:05;14.30;99.90
18163;DHT22;9206;50.994;4.538;2024-03-08T15:39:52;14.20;99.90
18163;DHT22;9206;50.994;4.538;2024-03-08T15:42:42;14.00;99.90
18163;DHT22;9206;50.994;4.538;2024-03-08T15:45:36;13.90;99.90
18163;DHT22;9206;50.994;4.538;2024-03-08T15:48:24;13.80;99.90
18163;DHT22;9206;50.994;4.538;2024-03-08T15:51:14;13.80;99.90
18163;DHT22;9206;50.994;4.538;2024-03-08T15:54:03;13.60;99.90
18163;DHT22;9206;50.994;4.538;2024-03-08T15:56:52;13.60;99.90
18163;DHT22;9206;50.994;4.538;2024-03-08T15:59:43;13.50;99.90
18163;DHT22;9206;50.994;4.538;2024-03-08T16:02:39;13.40;99.90
18163;DHT22;9206;50.994;4.538;2024-03-08T16:05:26;13.30;99.90
18163;DHT22;9206;50.994;4.538;2024-03-08T16:08:17;13.20;99.90
18163;DHT22;9206;50.994;4.538;2024-03-08T16:11:09;13.10;99.90
18163;DHT22;9206;50.994;4.538;2024-03-08T16:13:56;13.00;99.90
18163;DHT22;9206;50.994;4.538;2024-03-08T16:16:46;12.90;99.90
18163;DHT22;9206;50.994;4.538;2024-03-08T16:19:36;12.90;99.90
18163;DHT22;9206;50.994;4.538;2024-03-08T16:22:26;12.80;99.90
18163;DHT22;9206;50.994;4.538;2024-03-08T16:25:18;12.80;99.90
18163;DHT22;9206;50.994;4.538;2024-03-08T16:28:06;12.80;99.90
18163;DHT22;9206;50.994;4.538;2024-03-08T16:30:54;12.80;99.90
18163;DHT22;9206;50.994;4.538;2024-03-08T16:33:42;12.80;99.90
18163;DHT22;9206;50.994;4.538;2024-03-08T16:36:35;12.70;99.90
18163;DHT22;9206;50.994;4.538;2024-03-08T16:39:25;12.50;99.90
18163;DHT22;9206;50.994;4.538;2024-03-08T16:42:15;12.50;99.90
18163;DHT22;9206;50.994;4.538;2024-03-08T16:45:06;12.40;99.90
18163;DHT22;9206;50.994;4.538;2024-03-08T16:47:56;12.30;99.90
18163;DHT22;9206;50.994;4.538;2024-03-08T16:50:44;12.10;99.90
18163;DHT22;9206;50.994;4.538;2024-03-08T16:53:34;12.10;99.90
18163;DHT22;9206;50.994;4.538;2024-03-08T16:56:24;12.00;99.90
18163;DHT22;9206;50.994;4.538;2024-03-08T16:59:11;11.90;99.90
18163;DHT22;9206;50.994;4.538;2024-03-08T17:01:59;11.80;99.90
18163;DHT22;9206;50.994;4.538;2024-03-08T17:04:48;11.70;99.90
18163;DHT22;9206;50.994;4.538;2024-03-08T17:07:39;11.60;99.90
18163;DHT22;9206;50.994;4.538;2024-03-08T17:10:28;11.50;99.90
18163;DHT22;9206;50.994;4.538;2024-03-08T17:13:18;11.50;99.90
18163;DHT22;9206;50.994;4.538;2024-03-08T17:16:06;11.40;99.90
18163;DHT22;9206;50.994;4.538;2024-03-08T17:19:01;11.30;99.90
18163;DHT22;9206;50.994;4.538;2024-03-08T17:21:48;11.30;99.90
18163;DHT22;9206;50.994;4.538;2024-03-08T17:24:38;11.20;99.90
18163;DHT22;9206;50.994;4.538;2024-03-08T17:27:30;11.20;99.90
18163;DHT22;9206;50.994;4.538;2024-03-08T17:30:20;11.20;99.90
18163;DHT22;9206;50.994;4.538;2024-03-08T17:33:09;11.00;99.90
18163;DHT22;9206;50.994;4.538;2024-03-08T17:36:00;10.90;99.90
18163;DHT22;9206;50.994;4.538;2024-03-08T17:38:55;10.90;99.90
18163;DHT22;9206;50.994;4.538;2024-03-08T17:41:44;10.80;99.90
18163;DHT22;9206;50.994;4.538;2024-03-08T17:44:35;10.70;99.90
18163;DHT22;9206;50.994;4.538;2024-03-08T17:47:26;10.60;99.90
18163;DHT22;9206;50.994;4.538;2024-03-08T17:50:15;10.50;99.90
18163;DHT22;9206;50.994;4.538;2024-03-08T17:53:04;10.50;99.90
18163;DHT22;9206;50.994;4.538;2024-03-08T17:55:53;10.40;99.90
18163;DHT22;9206;50.994;4.538;2024-03-08T17:58:45;10.40;99.90
18163;DHT22;9206;50.994;4.538;2024-03-08T18:01:34;10.30;99.90
18163;DHT22;9206;50.994;4.538;2024-03-08T18:04:24;10.30;99.90
18163;DHT22;9206;50.994;4.538;2024-03-08T18:07:12;10.20;99.90
18163;DHT22;9206;50.994;4.538;2024-03-08T18:10:03;10.20;99.90
18163;DHT22;9206;50.994;4.538;2024-03-08T18:12:52;10.10;99.90
18163;DHT22;9206;50.994;4.538;2024-03-08T18:15:41;10.00;99.90
18163;DHT22;9206;50.994;4.538;2024-03-08T18:18:31;10.00;99.90
18163;DHT22;9206;50.994;4.538;2024-03-08T18:21:18;10.00;99.90